sensor_id;sensor_type;location;lat;lon;timestamp;P1;durP1;ratioP1;P2;durP2;ratioP2
27365;SDS011;14837;57.148;-2.144;2023-07-29T00:02:14;1.85;;;1.40;;
27365;SDS011;14837;57.148;-2.144;2023-07-29T00:04:41;1.33;;;1.08;;
27365;SDS011;14837;57.148;-2.144;2023-07-29T00:07:08;2.13;;;1.60;;
27365;SDS011;14837;57.148;-2.144;2023-07-29T00:09:34;2.03;;;1.40;;
27365;SDS011;14837;57.148;-2.144;2023-07-29T00:12:01;1.95;;;1.20;;
27365;SDS011;14837;57.148;-2.144;2023-07-29T00:14:27;2.33;;;1.35;;
27365;SDS011;14837;57.148;-2.144;2023-07-29T00:16:54;1.95;;;1.35;;
27365;SDS011;14837;57.148;-2.144;2023-07-29T00:19:20;2.35;;;1.73;;
27365;SDS011;14837;57.148;-2.144;2023-07-29T00:21:49;2.70;;;1.63;;
27365;SDS011;14837;57.148;-2.144;2023-07-29T00:24:16;2.78;;;1.38;;
27365;SDS011;14837;57.148;-2.144;2023-07-29T00:26:43;2.55;;;1.50;;
27365;SDS011;14837;57.148;-2.144;2023-07-29T00:29:09;1.70;;;1.30;;
27365;SDS011;14837;57.148;-2.144;2023-07-29T00:31:36;3.17;;;1.50;;
27365;SDS011;14837;57.148;-2.144;2023-07-29T00:34:02;3.67;;;1.42;;
27365;SDS011;14837;57.148;-2.144;2023-07-29T00:36:29;1.70;;;1.60;;
27365;SDS011;14837;57.148;-2.144;2023-07-29T00:38:55;3.45;;;1.70;;
27365;SDS011;14837;57.148;-2.144;2023-07-29T00:41:23;2.28;;;1.52;;
27365;SDS011;14837;57.148;-2.144;2023-07-29T00:43:51;3.00;;;1.98;;
27365;SDS011;14837;57.148;-2.144;2023-07-29T00:46:17;2.35;;;1.88;;
27365;SDS011;14837;57.148;-2.144;2023-07-29T00:48:44;2.47;;;1.55;;
27365;SDS011;14837;57.148;-2.144;2023-07-29T00:51:11;2.58;;;1.70;;
27365;SDS011;14837;57.148;-2.144;2023-07-29T00:53:38;1.48;;;1.25;;
27365;SDS011;14837;57.148;-2.144;2023-07-29T00:56:04;2.78;;;1.70;;
27365;SDS011;14837;57.148;-2.144;2023-07-29T00:58:31;2.08;;;1.73;;
27365;SDS011;14837;57.148;-2.144;2023-07-29T01:00:57;3.30;;;1.60;;
27365;SDS011;14837;57.148;-2.144;2023-07-29T01:03:24;2.08;;;1.50;;
27365;SDS011;14837;57.148;-2.144;2023-07-29T01:13:41;2.22;;;2.03;;
27365;SDS011;14837;57.148;-2.144;2023-07-29T01:16:11;2.28;;;1.77;;
27365;SDS011;14837;57.148;-2.144;2023-07-29T01:18:40;2.92;;;1.98;;
27365;SDS011;14837;57.148;-2.144;2023-07-29T01:21:07;2.13;;;1.58;;
27365;SDS011;14837;57.148;-2.144;2023-07-29T01:23:34;2.90;;;1.98;;
27365;SDS011;14837;57.148;-2.144;2023-07-29T01:26:02;3.28;;;2.10;;
27365;SDS011;14837;57.148;-2.144;2023-07-29T01:28:29;2.17;;;1.90;;
27365;SDS011;14837;57.148;-2.144;2023-07-29T01:31:18;2.15;;;1.60;;
27365;SDS011;14837;57.148;-2.144;2023-07-29T01:33:45;1.63;;;1.50;;
27365;SDS011;14837;57.148;-2.144;2023-07-29T01:36:15;2.63;;;1.90;;
27365;SDS011;14837;57.148;-2.144;2023-07-29T01:38:45;1.80;;;1.50;;
27365;SDS011;14837;57.148;-2.144;2023-07-29T01:41:12;1.67;;;1.55;;
27365;SDS011;14837;57.148;-2.144;2023-07-29T01:43:39;1.65;;;1.52;;
27365;SDS011;14837;57.148;-2.144;2023-07-29T01:46:10;1.77;;;1.40;;
27365;SDS011;14837;57.148;-2.144;2023-07-29T01:48:38;1.67;;;1.50;;
27365;SDS011;14837;57.148;-2.144;2023-07-29T01:51:05;2.20;;;1.38;;
27365;SDS011;14837;57.148;-2.144;2023-07-29T01:53:31;1.65;;;1.42;;
27365;SDS011;14837;57.148;-2.144;2023-07-29T01:55:58;2.38;;;1.50;;
27365;SDS011;14837;57.148;-2.144;2023-07-29T01:58:25;1.55;;;1.45;;
27365;SDS011;14837;57.148;-2.144;2023-07-29T02:00:51;1.88;;;1.38;;
27365;SDS011;14837;57.148;-2.144;2023-07-29T02:03:18;2.45;;;1.52;;
27365;SDS011;14837;57.148;-2.144;2023-07-29T02:05:44;2.78;;;1.25;;
27365;SDS011;14837;57.148;-2.144;2023-07-29T02:08:11;1.52;;;1.30;;
27365;SDS011;14837;57.148;-2.144;2023-07-29T02:10:37;1.58;;;1.48;;
27365;SDS011;14837;57.148;-2.144;2023-07-29T02:13:04;1.48;;;1.27;;
27365;SDS011;14837;57.148;-2.144;2023-07-29T02:15:31;1.90;;;1.20;;
27365;SDS011;14837;57.148;-2.144;2023-07-29T02:17:57;1.40;;;1.10;;
27365;SDS011;14837;57.148;-2.144;2023-07-29T02:20:25;2.03;;;1.17;;
27365;SDS011;14837;57.148;-2.144;2023-07-29T02:22:52;3.67;;;1.30;;
27365;SDS011;14837;57.148;-2.144;2023-07-29T02:25:18;1.33;;;1.20;;
27365;SDS011;14837;57.148;-2.144;2023-07-29T02:27:45;1.15;;;1.05;;
27365;SDS011;14837;57.148;-2.144;2023-07-29T02:30:11;1.40;;;1.05;;
27365;SDS011;14837;57.148;-2.144;2023-07-29T02:32:38;1.92;;;1.08;;
27365;SDS011;14837;57.148;-2.144;2023-07-29T02:35:05;2.13;;;1.38;;
27365;SDS011;14837;57.148;-2.144;2023-07-29T02:37:32;1.88;;;1.08;;
27365;SDS011;14837;57.148;-2.144;2023-07-29T02:39:59;1.60;;;1.35;;
27365;SDS011;14837;57.148;-2.144;2023-07-29T02:42:26;2.08;;;1.30;;
27365;SDS011;14837;57.148;-2.144;2023-07-29T02:44:53;2.28;;;1.48;;
27365;SDS011;14837;57.148;-2.144;2023-07-29T02:47:19;2.83;;;1.55;;
27365;SDS011;14837;57.148;-2.144;2023-07-29T02:49:46;3.15;;;1.40;;
27365;SDS011;14837;57.148;-2.144;2023-07-29T02:52:13;1.90;;;1.27;;
27365;SDS011;14837;57.148;-2.144;2023-07-29T02:54:39;2.40;;;1.20;;
27365;SDS011;14837;57.148;-2.144;2023-07-29T02:57:06;2.25;;;1.20;;
27365;SDS011;14837;57.148;-2.144;2023-07-29T02:59:32;2.25;;;1.33;;
27365;SDS011;14837;57.148;-2.144;2023-07-29T03:01:59;1.52;;;1.10;;
27365;SDS011;14837;57.148;-2.144;2023-07-29T03:04:25;1.50;;;1.25;;
27365;SDS011;14837;57.148;-2.144;2023-07-29T03:06:52;2.65;;;1.10;;
27365;SDS011;14837;57.148;-2.144;2023-07-29T03:09:18;2.33;;;1.20;;
27365;SDS011;14837;57.148;-2.144;2023-07-29T03:11:45;1.35;;;1.23;;
27365;SDS011;14837;57.148;-2.144;2023-07-29T03:14:12;1.77;;;1.30;;
27365;SDS011;14837;57.148;-2.144;2023-07-29T03:16:39;1.63;;;1.35;;
27365;SDS011;14837;57.148;-2.144;2023-07-29T03:19:05;2.10;;;0.95;;
27365;SDS011;14837;57.148;-2.144;2023-07-29T03:21:32;1.20;;;0.90;;
27365;SDS011;14837;57.148;-2.144;2023-07-29T03:23:59;2.35;;;1.25;;
27365;SDS011;14837;57.148;-2.144;2023-07-29T03:26:25;1.35;;;1.15;;
27365;SDS011;14837;57.148;-2.144;2023-07-29T03:28:52;1.45;;;1.13;;
27365;SDS011;14837;57.148;-2.144;2023-07-29T03:31:18;1.50;;;1.15;;
27365;SDS011;14837;57.148;-2.144;2023-07-29T03:33:45;2.00;;;0.93;;
27365;SDS011;14837;57.148;-2.144;2023-07-29T03:36:12;1.35;;;1.05;;
27365;SDS011;14837;57.148;-2.144;2023-07-29T03:38:40;1.65;;;1.17;;
27365;SDS011;14837;57.148;-2.144;2023-07-29T03:41:08;0.90;;;0.75;;
27365;SDS011;14837;57.148;-2.144;2023-07-29T03:43:35;1.67;;;0.90;;
27365;SDS011;14837;57.148;-2.144;2023-07-29T03:46:01;2.83;;;0.77;;
27365;SDS011;14837;57.148;-2.144;2023-07-29T03:48:28;0.95;;;0.80;;
27365;SDS011;14837;57.148;-2.144;2023-07-29T03:50:55;1.48;;;1.00;;
27365;SDS011;14837;57.148;-2.144;2023-07-29T03:53:21;1.00;;;0.90;;
27365;SDS011;14837;57.148;-2.144;2023-07-29T03:55:48;1.48;;;1.10;;
27365;SDS011;14837;57.148;-2.144;2023-07-29T03:58:16;1.10;;;1.00;;
27365;SDS011;14837;57.148;-2.144;2023-07-29T04:00:43;2.17;;;0.70;;
27365;SDS011;14837;57.148;-2.144;2023-07-29T04:03:09;1.23;;;0.70;;
27365;SDS011;14837;57.148;-2.144;2023-07-29T04:05:36;2.78;;;1.10;;
27365;SDS011;14837;57.148;-2.144;2023-07-29T04:08:03;1.05;;;0.90;;
27365;SDS011;14837;57.148;-2.144;2023-07-29T04:10:29;1.42;;;0.80;;
27365;SDS011;14837;57.148;-2.144;2023-07-29T04:12:58;1.25;;;1.05;;
27365;SDS011;14837;57.148;-2.144;2023-07-29T04:15:24;0.80;;;0.80;;
27365;SDS011;14837;57.148;-2.144;2023-07-29T04:17:51;0.95;;;0.73;;
27365;SDS011;14837;57.148;-2.144;2023-07-29T04:20:17;0.90;;;0.80;;
27365;SDS011;14837;57.148;-2.144;2023-07-29T04:22:44;1.65;;;0.85;;
27365;SDS011;14837;57.148;-2.144;2023-07-29T04:25:10;1.02;;;0.80;;
27365;SDS011;14837;57.148;-2.144;2023-07-29T04:27:37;2.47;;;1.35;;
27365;SDS011;14837;57.148;-2.144;2023-07-29T04:30:04;1.17;;;0.80;;
27365;SDS011;14837;57.148;-2.144;2023-07-29T04:32:30;1.35;;;0.77;;
27365;SDS011;14837;57.148;-2.144;2023-07-29T04:34:57;1.42;;;0.90;;
27365;SDS011;14837;57.148;-2.144;2023-07-29T04:37:24;1.63;;;0.77;;
27365;SDS011;14837;57.148;-2.144;2023-07-29T04:39:50;2.30;;;1.20;;
27365;SDS011;14837;57.148;-2.144;2023-07-29T04:42:17;1.33;;;0.90;;
27365;SDS011;14837;57.148;-2.144;2023-07-29T04:44:43;3.20;;;1.20;;
27365;SDS011;14837;57.148;-2.144;2023-07-29T04:47:10;1.85;;;1.60;;
27365;SDS011;14837;57.148;-2.144;2023-07-29T04:49:37;3.92;;;1.52;;
27365;SDS011;14837;57.148;-2.144;2023-07-29T04:52:03;2.25;;;1.00;;
27365;SDS011;14837;57.148;-2.144;2023-07-29T04:54:30;3.22;;;1.63;;
27365;SDS011;14837;57.148;-2.144;2023-07-29T04:56:57;1.98;;;1.05;;
27365;SDS011;14837;57.148;-2.144;2023-07-29T04:59:23;1.90;;;0.98;;
27365;SDS011;14837;57.148;-2.144;2023-07-29T05:01:50;3.45;;;1.40;;
27365;SDS011;14837;57.148;-2.144;2023-07-29T05:04:20;1.52;;;1.00;;
27365;SDS011;14837;57.148;-2.144;2023-07-29T05:06:46;2.13;;;1.33;;
27365;SDS011;14837;57.148;-2.144;2023-07-29T05:09:13;2.67;;;1.10;;
27365;SDS011;14837;57.148;-2.144;2023-07-29T05:11:40;2.50;;;1.00;;
27365;SDS011;14837;57.148;-2.144;2023-07-29T05:14:07;1.52;;;1.42;;
27365;SDS011;14837;57.148;-2.144;2023-07-29T05:16:35;1.85;;;1.17;;
27365;SDS011;14837;57.148;-2.144;2023-07-29T05:19:02;2.35;;;0.85;;
27365;SDS011;14837;57.148;-2.144;2023-07-29T05:21:29;1.23;;;0.82;;
27365;SDS011;14837;57.148;-2.144;2023-07-29T05:23:55;2.15;;;1.02;;
27365;SDS011;14837;57.148;-2.144;2023-07-29T05:26:22;1.75;;;1.15;;
27365;SDS011;14837;57.148;-2.144;2023-07-29T05:28:49;2.20;;;1.20;;
27365;SDS011;14837;57.148;-2.144;2023-07-29T05:31:15;1.65;;;0.90;;
27365;SDS011;14837;57.148;-2.144;2023-07-29T05:33:42;1.27;;;0.90;;
27365;SDS011;14837;57.148;-2.144;2023-07-29T05:36:08;2.22;;;1.02;;
27365;SDS011;14837;57.148;-2.144;2023-07-29T05:38:35;1.67;;;0.90;;
27365;SDS011;14837;57.148;-2.144;2023-07-29T05:41:01;3.55;;;1.30;;
27365;SDS011;14837;57.148;-2.144;2023-07-29T05:43:28;3.67;;;1.00;;
27365;SDS011;14837;57.148;-2.144;2023-07-29T05:45:55;2.40;;;1.30;;
27365;SDS011;14837;57.148;-2.144;2023-07-29T05:48:21;1.85;;;1.33;;
27365;SDS011;14837;57.148;-2.144;2023-07-29T05:50:48;2.08;;;0.90;;
27365;SDS011;14837;57.148;-2.144;2023-07-29T05:53:15;3.70;;;1.55;;
27365;SDS011;14837;57.148;-2.144;2023-07-29T05:55:41;2.55;;;1.42;;
27365;SDS011;14837;57.148;-2.144;2023-07-29T05:58:08;1.20;;;0.95;;
27365;SDS011;14837;57.148;-2.144;2023-07-29T06:00:35;2.60;;;1.02;;
27365;SDS011;14837;57.148;-2.144;2023-07-29T06:03:02;3.50;;;1.50;;
27365;SDS011;14837;57.148;-2.144;2023-07-29T06:05:29;1.83;;;1.15;;
27365;SDS011;14837;57.148;-2.144;2023-07-29T06:07:55;3.17;;;1.00;;
27365;SDS011;14837;57.148;-2.144;2023-07-29T06:10:22;3.08;;;1.48;;
27365;SDS011;14837;57.148;-2.144;2023-07-29T06:12:48;3.78;;;1.27;;
27365;SDS011;14837;57.148;-2.144;2023-07-29T06:15:15;1.73;;;0.90;;
27365;SDS011;14837;57.148;-2.144;2023-07-29T06:17:42;1.98;;;0.90;;
27365;SDS011;14837;57.148;-2.144;2023-07-29T06:20:08;1.17;;;0.98;;
27365;SDS011;14837;57.148;-2.144;2023-07-29T06:22:35;3.35;;;1.20;;
27365;SDS011;14837;57.148;-2.144;2023-07-29T06:25:02;3.38;;;1.38;;
27365;SDS011;14837;57.148;-2.144;2023-07-29T06:27:29;2.95;;;1.40;;
27365;SDS011;14837;57.148;-2.144;2023-07-29T06:29:55;2.63;;;1.42;;
27365;SDS011;14837;57.148;-2.144;2023-07-29T06:32:22;1.88;;;1.00;;
27365;SDS011;14837;57.148;-2.144;2023-07-29T06:34:49;2.58;;;1.45;;
27365;SDS011;14837;57.148;-2.144;2023-07-29T06:37:15;3.17;;;1.27;;
27365;SDS011;14837;57.148;-2.144;2023-07-29T06:39:42;2.28;;;1.42;;
27365;SDS011;14837;57.148;-2.144;2023-07-29T06:42:08;4.15;;;2.03;;
27365;SDS011;14837;57.148;-2.144;2023-07-29T06:44:35;2.80;;;1.20;;
27365;SDS011;14837;57.148;-2.144;2023-07-29T06:47:02;2.55;;;1.15;;
27365;SDS011;14837;57.148;-2.144;2023-07-29T06:49:29;4.85;;;1.92;;
27365;SDS011;14837;57.148;-2.144;2023-07-29T06:51:55;3.00;;;1.20;;
27365;SDS011;14837;57.148;-2.144;2023-07-29T06:54:25;2.00;;;1.33;;
27365;SDS011;14837;57.148;-2.144;2023-07-29T06:56:52;1.85;;;1.17;;
27365;SDS011;14837;57.148;-2.144;2023-07-29T06:59:19;3.58;;;1.17;;
27365;SDS011;14837;57.148;-2.144;2023-07-29T07:01:45;1.88;;;1.23;;
27365;SDS011;14837;57.148;-2.144;2023-07-29T07:04:12;4.05;;;1.30;;
27365;SDS011;14837;57.148;-2.144;2023-07-29T07:06:39;2.15;;;1.02;;
27365;SDS011;14837;57.148;-2.144;2023-07-29T07:09:05;3.28;;;1.45;;
27365;SDS011;14837;57.148;-2.144;2023-07-29T07:11:32;3.22;;;1.20;;
27365;SDS011;14837;57.148;-2.144;2023-07-29T07:13:58;2.35;;;1.20;;
27365;SDS011;14837;57.148;-2.144;2023-07-29T07:16:25;2.10;;;1.48;;
27365;SDS011;14837;57.148;-2.144;2023-07-29T07:18:51;4.18;;;1.88;;
27365;SDS011;14837;57.148;-2.144;2023-07-29T07:21:18;1.23;;;0.93;;
27365;SDS011;14837;57.148;-2.144;2023-07-29T07:23:44;3.22;;;1.60;;
27365;SDS011;14837;57.148;-2.144;2023-07-29T07:26:11;3.17;;;1.60;;
27365;SDS011;14837;57.148;-2.144;2023-07-29T07:28:37;2.30;;;1.35;;
27365;SDS011;14837;57.148;-2.144;2023-07-29T07:31:04;3.75;;;1.45;;
27365;SDS011;14837;57.148;-2.144;2023-07-29T07:33:31;2.33;;;1.42;;
27365;SDS011;14837;57.148;-2.144;2023-07-29T07:35:57;3.55;;;1.58;;
27365;SDS011;14837;57.148;-2.144;2023-07-29T07:38:24;4.35;;;2.03;;
27365;SDS011;14837;57.148;-2.144;2023-07-29T07:40:54;2.95;;;1.52;;
27365;SDS011;14837;57.148;-2.144;2023-07-29T07:43:21;3.53;;;1.00;;
27365;SDS011;14837;57.148;-2.144;2023-07-29T07:45:48;3.88;;;1.58;;
27365;SDS011;14837;57.148;-2.144;2023-07-29T07:48:14;2.25;;;1.50;;
27365;SDS011;14837;57.148;-2.144;2023-07-29T07:50:43;2.72;;;1.85;;
27365;SDS011;14837;57.148;-2.144;2023-07-29T07:53:09;2.00;;;1.02;;
27365;SDS011;14837;57.148;-2.144;2023-07-29T07:55:36;3.75;;;1.40;;
27365;SDS011;14837;57.148;-2.144;2023-07-29T07:58:02;3.17;;;1.52;;
27365;SDS011;14837;57.148;-2.144;2023-07-29T08:00:29;3.42;;;1.55;;
27365;SDS011;14837;57.148;-2.144;2023-07-29T08:02:55;2.78;;;1.67;;
27365;SDS011;14837;57.148;-2.144;2023-07-29T08:05:22;4.55;;;1.20;;
27365;SDS011;14837;57.148;-2.144;2023-07-29T08:07:49;4.93;;;1.67;;
27365;SDS011;14837;57.148;-2.144;2023-07-29T08:10:15;3.35;;;1.27;;
27365;SDS011;14837;57.148;-2.144;2023-07-29T08:12:42;2.55;;;1.70;;
27365;SDS011;14837;57.148;-2.144;2023-07-29T08:15:08;2.67;;;1.52;;
27365;SDS011;14837;57.148;-2.144;2023-07-29T08:17:35;2.45;;;1.30;;
27365;SDS011;14837;57.148;-2.144;2023-07-29T08:20:02;2.03;;;1.25;;
27365;SDS011;14837;57.148;-2.144;2023-07-29T08:22:28;2.00;;;1.20;;
27365;SDS011;14837;57.148;-2.144;2023-07-29T08:24:55;6.32;;;2.53;;
27365;SDS011;14837;57.148;-2.144;2023-07-29T08:27:21;2.13;;;1.40;;
27365;SDS011;14837;57.148;-2.144;2023-07-29T08:29:48;1.85;;;1.33;;
27365;SDS011;14837;57.148;-2.144;2023-07-29T08:32:14;1.77;;;1.02;;
27365;SDS011;14837;57.148;-2.144;2023-07-29T08:34:41;3.00;;;1.92;;
27365;SDS011;14837;57.148;-2.144;2023-07-29T08:37:08;2.05;;;1.15;;
27365;SDS011;14837;57.148;-2.144;2023-07-29T08:39:34;2.17;;;1.40;;
27365;SDS011;14837;57.148;-2.144;2023-07-29T08:42:02;2.53;;;1.55;;
27365;SDS011;14837;57.148;-2.144;2023-07-29T08:44:42;2.83;;;1.92;;
27365;SDS011;14837;57.148;-2.144;2023-07-29T08:47:09;2.15;;;1.25;;
27365;SDS011;14837;57.148;-2.144;2023-07-29T08:49:36;2.78;;;1.33;;
27365;SDS011;14837;57.148;-2.144;2023-07-29T08:52:03;2.20;;;1.05;;
27365;SDS011;14837;57.148;-2.144;2023-07-29T08:54:30;3.75;;;1.85;;
27365;SDS011;14837;57.148;-2.144;2023-07-29T08:56:57;4.15;;;1.55;;
27365;SDS011;14837;57.148;-2.144;2023-07-29T08:59:24;2.22;;;1.10;;
27365;SDS011;14837;57.148;-2.144;2023-07-29T09:01:52;5.50;;;2.13;;
27365;SDS011;14837;57.148;-2.144;2023-07-29T09:04:21;2.28;;;1.27;;
27365;SDS011;14837;57.148;-2.144;2023-07-29T09:06:50;2.28;;;1.17;;
27365;SDS011;14837;57.148;-2.144;2023-07-29T09:09:16;2.53;;;1.30;;
27365;SDS011;14837;57.148;-2.144;2023-07-29T09:11:43;1.80;;;1.50;;
27365;SDS011;14837;57.148;-2.144;2023-07-29T09:14:10;1.98;;;0.93;;
27365;SDS011;14837;57.148;-2.144;2023-07-29T09:16:36;1.63;;;0.93;;
27365;SDS011;14837;57.148;-2.144;2023-07-29T09:19:04;2.22;;;1.10;;
27365;SDS011;14837;57.148;-2.144;2023-07-29T09:21:31;2.42;;;1.30;;
27365;SDS011;14837;57.148;-2.144;2023-07-29T09:24:02;1.17;;;1.00;;
27365;SDS011;14837;57.148;-2.144;2023-07-29T09:26:28;1.48;;;0.88;;
27365;SDS011;14837;57.148;-2.144;2023-07-29T09:28:56;1.60;;;0.88;;
27365;SDS011;14837;57.148;-2.144;2023-07-29T09:31:23;1.50;;;1.08;;
27365;SDS011;14837;57.148;-2.144;2023-07-29T09:33:55;1.00;;;0.80;;
27365;SDS011;14837;57.148;-2.144;2023-07-29T09:36:23;1.17;;;0.70;;
27365;SDS011;14837;57.148;-2.144;2023-07-29T09:38:56;2.00;;;0.93;;
27365;SDS011;14837;57.148;-2.144;2023-07-29T09:41:23;0.45;;;0.43;;
27365;SDS011;14837;57.148;-2.144;2023-07-29T09:44:00;0.88;;;0.68;;
27365;SDS011;14837;57.148;-2.144;2023-07-29T09:46:36;0.60;;;0.45;;
27365;SDS011;14837;57.148;-2.144;2023-07-29T09:49:05;1.17;;;0.60;;
27365;SDS011;14837;57.148;-2.144;2023-07-29T09:51:36;1.40;;;0.63;;
27365;SDS011;14837;57.148;-2.144;2023-07-29T09:54:03;0.55;;;0.40;;
27365;SDS011;14837;57.148;-2.144;2023-07-29T09:56:30;0.52;;;0.40;;
27365;SDS011;14837;57.148;-2.144;2023-07-29T09:58:56;0.60;;;0.47;;
27365;SDS011;14837;57.148;-2.144;2023-07-29T10:01:23;0.70;;;0.50;;
27365;SDS011;14837;57.148;-2.144;2023-07-29T10:03:50;0.68;;;0.57;;
27365;SDS011;14837;57.148;-2.144;2023-07-29T10:06:18;1.23;;;0.65;;
27365;SDS011;14837;57.148;-2.144;2023-07-29T10:08:45;0.52;;;0.52;;
27365;SDS011;14837;57.148;-2.144;2023-07-29T10:11:11;1.13;;;0.50;;
27365;SDS011;14837;57.148;-2.144;2023-07-29T10:13:38;0.90;;;0.70;;
27365;SDS011;14837;57.148;-2.144;2023-07-29T10:16:05;1.08;;;0.80;;
27365;SDS011;14837;57.148;-2.144;2023-07-29T10:18:33;3.47;;;0.52;;
27365;SDS011;14837;57.148;-2.144;2023-07-29T10:21:00;0.70;;;0.52;;
27365;SDS011;14837;57.148;-2.144;2023-07-29T10:23:27;0.63;;;0.47;;
27365;SDS011;14837;57.148;-2.144;2023-07-29T10:26:04;1.73;;;0.73;;
27365;SDS011;14837;57.148;-2.144;2023-07-29T10:28:31;0.63;;;0.52;;
27365;SDS011;14837;57.148;-2.144;2023-07-29T10:30:59;0.88;;;0.63;;
27365;SDS011;14837;57.148;-2.144;2023-07-29T10:33:26;1.25;;;0.70;;
27365;SDS011;14837;57.148;-2.144;2023-07-29T10:35:53;0.77;;;0.65;;
27365;SDS011;14837;57.148;-2.144;2023-07-29T10:38:21;1.38;;;0.70;;
27365;SDS011;14837;57.148;-2.144;2023-07-29T10:40:52;0.93;;;0.60;;
27365;SDS011;14837;57.148;-2.144;2023-07-29T10:45:48;1.55;;;0.60;;
27365;SDS011;14837;57.148;-2.144;2023-07-29T10:53:46;1.10;;;0.60;;
27365;SDS011;14837;57.148;-2.144;2023-07-29T10:56:13;0.85;;;0.52;;
27365;SDS011;14837;57.148;-2.144;2023-07-29T10:58:41;0.98;;;0.80;;
27365;SDS011;14837;57.148;-2.144;2023-07-29T11:01:20;0.77;;;0.45;;
27365;SDS011;14837;57.148;-2.144;2023-07-29T11:12:05;2.33;;;0.80;;
27365;SDS011;14837;57.148;-2.144;2023-07-29T11:14:40;2.80;;;0.73;;
27365;SDS011;14837;57.148;-2.144;2023-07-29T11:17:07;2.38;;;0.73;;
27365;SDS011;14837;57.148;-2.144;2023-07-29T11:19:37;0.68;;;0.45;;
27365;SDS011;14837;57.148;-2.144;2023-07-29T11:22:04;1.65;;;0.63;;
27365;SDS011;14837;57.148;-2.144;2023-07-29T11:24:31;1.58;;;0.75;;
27365;SDS011;14837;57.148;-2.144;2023-07-29T11:26:57;1.17;;;0.57;;
27365;SDS011;14837;57.148;-2.144;2023-07-29T11:29:24;1.85;;;0.47;;
27365;SDS011;14837;57.148;-2.144;2023-07-29T11:31:51;1.30;;;0.60;;
27365;SDS011;14837;57.148;-2.144;2023-07-29T11:34:17;1.75;;;0.68;;
27365;SDS011;14837;57.148;-2.144;2023-07-29T11:36:47;2.25;;;0.77;;
27365;SDS011;14837;57.148;-2.144;2023-07-29T11:39:13;1.58;;;0.70;;
27365;SDS011;14837;57.148;-2.144;2023-07-29T11:41:42;2.30;;;0.70;;
27365;SDS011;14837;57.148;-2.144;2023-07-29T11:44:09;1.80;;;0.70;;
27365;SDS011;14837;57.148;-2.144;2023-07-29T11:46:36;2.50;;;0.85;;
27365;SDS011;14837;57.148;-2.144;2023-07-29T11:49:03;2.22;;;0.70;;
27365;SDS011;14837;57.148;-2.144;2023-07-29T11:51:29;1.35;;;0.77;;
27365;SDS011;14837;57.148;-2.144;2023-07-29T11:53:56;1.00;;;0.60;;
27365;SDS011;14837;57.148;-2.144;2023-07-29T11:56:22;1.35;;;0.65;;
27365;SDS011;14837;57.148;-2.144;2023-07-29T11:58:49;2.08;;;0.70;;
27365;SDS011;14837;57.148;-2.144;2023-07-29T12:01:16;1.65;;;0.65;;
27365;SDS011;14837;57.148;-2.144;2023-07-29T12:03:42;1.80;;;1.02;;
27365;SDS011;14837;57.148;-2.144;2023-07-29T12:06:10;2.40;;;0.80;;
27365;SDS011;14837;57.148;-2.144;2023-07-29T12:08:36;1.38;;;0.60;;
27365;SDS011;14837;57.148;-2.144;2023-07-29T12:11:03;3.25;;;0.93;;
27365;SDS011;14837;57.148;-2.144;2023-07-29T12:13:30;2.22;;;0.70;;
27365;SDS011;14837;57.148;-2.144;2023-07-29T12:16:03;2.60;;;0.80;;
27365;SDS011;14837;57.148;-2.144;2023-07-29T12:18:33;4.35;;;0.85;;
27365;SDS011;14837;57.148;-2.144;2023-07-29T12:21:00;2.17;;;0.93;;
27365;SDS011;14837;57.148;-2.144;2023-07-29T12:23:26;1.63;;;0.60;;
27365;SDS011;14837;57.148;-2.144;2023-07-29T12:25:57;1.50;;;0.80;;
27365;SDS011;14837;57.148;-2.144;2023-07-29T12:28:24;1.17;;;0.70;;
27365;SDS011;14837;57.148;-2.144;2023-07-29T12:30:54;1.08;;;0.57;;
27365;SDS011;14837;57.148;-2.144;2023-07-29T12:33:36;0.95;;;0.63;;
27365;SDS011;14837;57.148;-2.144;2023-07-29T12:38:31;2.78;;;1.15;;
27365;SDS011;14837;57.148;-2.144;2023-07-29T12:40:58;2.75;;;1.42;;
27365;SDS011;14837;57.148;-2.144;2023-07-29T12:43:25;2.30;;;0.80;;
27365;SDS011;14837;57.148;-2.144;2023-07-29T12:45:51;3.58;;;1.40;;
27365;SDS011;14837;57.148;-2.144;2023-07-29T12:48:18;1.17;;;0.57;;
27365;SDS011;14837;57.148;-2.144;2023-07-29T12:50:45;1.75;;;0.90;;
27365;SDS011;14837;57.148;-2.144;2023-07-29T12:53:12;2.28;;;1.05;;
27365;SDS011;14837;57.148;-2.144;2023-07-29T12:55:39;1.00;;;0.40;;
27365;SDS011;14837;57.148;-2.144;2023-07-29T12:58:05;1.02;;;0.65;;
27365;SDS011;14837;57.148;-2.144;2023-07-29T13:00:32;0.60;;;0.40;;
27365;SDS011;14837;57.148;-2.144;2023-07-29T13:02:58;1.60;;;1.05;;
27365;SDS011;14837;57.148;-2.144;2023-07-29T13:05:25;1.40;;;0.80;;
27365;SDS011;14837;57.148;-2.144;2023-07-29T13:07:52;1.00;;;0.70;;
27365;SDS011;14837;57.148;-2.144;2023-07-29T13:10:18;3.28;;;1.00;;
27365;SDS011;14837;57.148;-2.144;2023-07-29T13:12:45;1.45;;;0.60;;
27365;SDS011;14837;57.148;-2.144;2023-07-29T13:15:11;1.70;;;0.82;;
27365;SDS011;14837;57.148;-2.144;2023-07-29T13:17:38;1.85;;;0.70;;
27365;SDS011;14837;57.148;-2.144;2023-07-29T13:20:06;1.27;;;0.80;;
27365;SDS011;14837;57.148;-2.144;2023-07-29T13:22:32;1.20;;;0.70;;
27365;SDS011;14837;57.148;-2.144;2023-07-29T13:24:59;2.45;;;0.80;;
27365;SDS011;14837;57.148;-2.144;2023-07-29T13:27:25;2.63;;;0.65;;
27365;SDS011;14837;57.148;-2.144;2023-07-29T13:29:53;2.10;;;0.60;;
27365;SDS011;14837;57.148;-2.144;2023-07-29T13:32:19;1.25;;;0.73;;
27365;SDS011;14837;57.148;-2.144;2023-07-29T13:34:46;0.80;;;0.50;;
27365;SDS011;14837;57.148;-2.144;2023-07-29T13:37:12;0.82;;;0.60;;
27365;SDS011;14837;57.148;-2.144;2023-07-29T13:39:39;1.75;;;0.60;;
27365;SDS011;14837;57.148;-2.144;2023-07-29T13:42:06;1.05;;;0.50;;
27365;SDS011;14837;57.148;-2.144;2023-07-29T13:44:32;1.08;;;0.55;;
27365;SDS011;14837;57.148;-2.144;2023-07-29T13:46:59;0.75;;;0.50;;
27365;SDS011;14837;57.148;-2.144;2023-07-29T13:49:25;1.77;;;0.80;;
27365;SDS011;14837;57.148;-2.144;2023-07-29T13:51:52;2.40;;;0.63;;
27365;SDS011;14837;57.148;-2.144;2023-07-29T13:54:18;1.65;;;0.70;;
27365;SDS011;14837;57.148;-2.144;2023-07-29T13:56:45;3.78;;;0.93;;
27365;SDS011;14837;57.148;-2.144;2023-07-29T13:59:11;2.65;;;1.20;;
27365;SDS011;14837;57.148;-2.144;2023-07-29T14:01:38;2.20;;;1.10;;
27365;SDS011;14837;57.148;-2.144;2023-07-29T14:04:05;1.98;;;0.85;;
27365;SDS011;14837;57.148;-2.144;2023-07-29T14:06:32;2.65;;;1.08;;
27365;SDS011;14837;57.148;-2.144;2023-07-29T14:09:11;2.15;;;0.80;;
27365;SDS011;14837;57.148;-2.144;2023-07-29T14:11:38;2.05;;;0.90;;
27365;SDS011;14837;57.148;-2.144;2023-07-29T14:14:06;1.83;;;0.80;;
27365;SDS011;14837;57.148;-2.144;2023-07-29T14:16:33;1.88;;;0.88;;
27365;SDS011;14837;57.148;-2.144;2023-07-29T14:19:00;2.67;;;0.77;;
27365;SDS011;14837;57.148;-2.144;2023-07-29T14:21:26;3.42;;;1.20;;
27365;SDS011;14837;57.148;-2.144;2023-07-29T14:23:53;1.88;;;0.70;;
27365;SDS011;14837;57.148;-2.144;2023-07-29T14:26:19;1.90;;;0.70;;
27365;SDS011;14837;57.148;-2.144;2023-07-29T14:28:46;2.38;;;1.05;;
27365;SDS011;14837;57.148;-2.144;2023-07-29T14:31:13;4.15;;;1.27;;
27365;SDS011;14837;57.148;-2.144;2023-07-29T14:33:40;2.20;;;1.08;;
27365;SDS011;14837;57.148;-2.144;2023-07-29T14:36:06;1.77;;;0.90;;
27365;SDS011;14837;57.148;-2.144;2023-07-29T14:38:34;1.42;;;0.70;;
27365;SDS011;14837;57.148;-2.144;2023-07-29T14:41:01;2.75;;;1.23;;
27365;SDS011;14837;57.148;-2.144;2023-07-29T14:43:27;4.30;;;0.88;;
27365;SDS011;14837;57.148;-2.144;2023-07-29T14:45:54;2.17;;;0.93;;
27365;SDS011;14837;57.148;-2.144;2023-07-29T14:48:21;2.85;;;1.27;;
27365;SDS011;14837;57.148;-2.144;2023-07-29T14:50:47;1.92;;;1.13;;
27365;SDS011;14837;57.148;-2.144;2023-07-29T14:53:14;2.28;;;1.17;;
27365;SDS011;14837;57.148;-2.144;2023-07-29T14:55:40;2.08;;;1.00;;
27365;SDS011;14837;57.148;-2.144;2023-07-29T14:58:07;2.50;;;1.40;;
27365;SDS011;14837;57.148;-2.144;2023-07-29T15:00:34;2.88;;;1.33;;